»·PEaware :: UAL2414 KSFO-KMFR

UAL2414 :: KSFO-KMFR

FLIGHT INFORMATION

Flight Status: Arrived
Operator:
United Airlines
More flights by this operator :: More flights under this callsign
Pilot: Patricio R. (14780)
Aircraft: BOEING 737-900
(B739)
More flights by this aircraft type
Origin: KSFO San Francisco Intl
United States
Destination: KMFR Rogue Valley Intl-Medford
United States
More flights between these airports :: More routes between these airports
Route: +TRUKN2 GRTFL OED
File this flight plan on PilotEdge
Remarks: PBN / A1B1C1D1S1S2 DOF / 180819 REG / N922SB EET / KZSE0036 OPR / UAL PER / D RMK / TCAS SIMBRIEF
Altitude:
(Current/Filed)
24,000ft
Speed:
(Current/Filed)
395kts
Departed: 19-Aug-18 12:14 PM
Arrived: 19-Aug-18 01:07 PM
Distance/Time
Traveled:
286nm/0:53
Distance/Time
To Go:
Arrived

Flight Plot

Page will automatically refresh every two minutes.


Map Options




Map Legend


Flown Route
Filed Route
Departure Airport
Arrival Airport
Navaid (VOR, NDB)
Fix

Horizontal Profiles

Position Reports

Time Latitude Longitude Heading Altitude Ground
Speed
19-Aug-18 11:58 37.618803 -122.385203 155 34ft 0kts
19-Aug-18 11:59 37.618803 -122.385203 155 34ft 0kts
19-Aug-18 12:00 37.618803 -122.385203 155 34ft 0kts
19-Aug-18 12:01 37.618803 -122.385203 155 34ft 0kts
19-Aug-18 12:02 37.618803 -122.385203 155 34ft 0kts
19-Aug-18 12:03 37.618803 -122.385203 155 34ft 0kts
19-Aug-18 12:04 37.618803 -122.385203 155 34ft 0kts
19-Aug-18 12:05 37.619297 -122.385488 155 34ft 2kts
19-Aug-18 12:06 37.619530 -122.385834 65 34ft 1kts
19-Aug-18 12:07 37.619525 -122.385845 65 34ft 0kts
19-Aug-18 12:08 37.619701 -122.385506 33 34ft 1kts
19-Aug-18 12:09 37.620357 -122.383684 118 34ft 13kts
19-Aug-18 12:10 37.617372 -122.379447 180 33ft 15kts
19-Aug-18 12:11 37.613607 -122.381622 208 34ft 16kts
19-Aug-18 12:12 37.609691 -122.384423 215 33ft 15kts
19-Aug-18 12:13 37.608589 -122.384107 119 32ft 0kts
19-Aug-18 12:14 37.608161 -122.382991 85 31ft 7kts
19-Aug-18 12:15 37.630740 -122.367749 22 301ft 177kts
19-Aug-18 12:16 37.664960 -122.323757 58 2666ft 204kts
19-Aug-18 12:17 37.695625 -122.255591 55 5008ft 233kts
19-Aug-18 12:18 37.749523 -122.213338 358 7021ft 268kts
19-Aug-18 12:19 37.828837 -122.215771 357 9294ft 296kts
19-Aug-18 12:20 37.912706 -122.218427 358 11855ft 308kts
19-Aug-18 12:21 37.999408 -122.220977 358 14373ft 319kts
19-Aug-18 12:22 38.089140 -122.223513 357 16845ft 329kts
19-Aug-18 12:23 38.181218 -122.226085 357 19074ft 339kts
19-Aug-18 12:24 38.277006 -122.228739 356 21062ft 352kts
19-Aug-18 12:25 38.359268 -122.231111 354 22601ft 360kts
19-Aug-18 12:26 38.477404 -122.249606 350 23996ft 382kts
19-Aug-18 12:27 38.587386 -122.267865 350 23999ft 417kts
19-Aug-18 12:28 38.685942 -122.284126 350 23992ft 437kts
19-Aug-18 12:29 38.806231 -122.303907 349 23973ft 436kts
19-Aug-18 12:30 38.926363 -122.323748 349 23972ft 436kts
19-Aug-18 12:31 39.046354 -122.343578 349 23972ft 436kts
19-Aug-18 12:32 39.154114 -122.361392 349 23988ft 436kts
19-Aug-18 12:33 39.273882 -122.381180 349 23979ft 436kts
19-Aug-18 12:34 39.394029 -122.401050 349 23970ft 436kts
19-Aug-18 12:35 39.514095 -122.420912 349 23970ft 436kts
19-Aug-18 12:36 39.633903 -122.440732 349 23970ft 436kts
19-Aug-18 12:37 39.754206 -122.460638 349 23962ft 436kts
19-Aug-18 12:38 39.874325 -122.480481 348 23961ft 437kts
19-Aug-18 12:39 39.994416 -122.500361 348 23961ft 437kts
19-Aug-18 12:40 40.114639 -122.520266 348 23960ft 437kts
19-Aug-18 12:41 40.234245 -122.540063 349 23959ft 437kts
19-Aug-18 12:42 40.354467 -122.559952 348 23959ft 437kts
19-Aug-18 12:43 40.475136 -122.579934 348 23950ft 437kts
19-Aug-18 12:44 40.595299 -122.599833 348 23950ft 437kts
19-Aug-18 12:45 40.715576 -122.619761 348 24054ft 436kts
19-Aug-18 12:46 40.836406 -122.639777 348 24060ft 439kts
19-Aug-18 12:47 40.956684 -122.659695 347 24068ft 438kts
19-Aug-18 12:48 41.075992 -122.679428 347 24051ft 428kts
19-Aug-18 12:49 41.183785 -122.697061 347 23264ft 377kts
19-Aug-18 12:50 41.283545 -122.713653 346 21754ft 359kts
19-Aug-18 12:51 41.380497 -122.729794 347 20034ft 351kts
19-Aug-18 12:52 41.476101 -122.745684 347 18347ft 343kts
19-Aug-18 12:53 41.569093 -122.761107 348 16793ft 334kts
19-Aug-18 12:54 41.660083 -122.776195 348 15256ft 326kts
19-Aug-18 12:55 41.747515 -122.790695 349 12497ft 312kts
19-Aug-18 12:56 41.830492 -122.804469 350 11002ft 283kts
19-Aug-18 12:57 41.902611 -122.816404 350 11025ft 255kts
19-Aug-18 12:58 41.970942 -122.801143 10 10771ft 235kts
19-Aug-18 12:59 42.031505 -122.782390 10 10447ft 222kts
19-Aug-18 13:00 42.091598 -122.763789 10 10105ft 220kts
19-Aug-18 13:01 42.147783 -122.746310 10 9140ft 193kts
19-Aug-18 13:02 42.196968 -122.731004 9 8188ft 165kts
19-Aug-18 13:03 42.232987 -122.745754 299 7150ft 145kts
19-Aug-18 13:04 42.256083 -122.790514 309 5460ft 147kts
19-Aug-18 13:05 42.286916 -122.825587 331 3760ft 146kts
19-Aug-18 13:06 42.323964 -122.846579 338 2191ft 142kts
19-Aug-18 13:07 42.361079 -122.865993 338 1403ft 143kts
19-Aug-18 13:08 42.380007 -122.875932 337 1309ft 36kts
19-Aug-18 13:09 42.380283 -122.877937 249 1309ft 2kts
19-Aug-18 13:10 42.377703 -122.876320 158 1311ft 30kts
19-Aug-18 13:11 42.370767 -122.872668 159 1321ft 18kts
19-Aug-18 13:12 42.368990 -122.873475 247 1320ft 0kts
19-Aug-18 13:13 42.368990 -122.873475 247 1320ft 0kts

Navigation Log

Ident Type
Flight plan parsing failed, navigation log unavailable